createdAt,value
2019-04-14T00:08:04.645Z,95102.80
2019-04-14T00:13:05.092Z,95091.36
2019-04-14T00:18:07.445Z,95087.22
2019-04-14T00:23:08.786Z,95076.05
2019-04-14T00:28:09.514Z,95074.91
2019-04-14T00:33:11.169Z,95077.40
2019-04-14T00:38:28.088Z,95079.19
2019-04-14T00:43:33.560Z,95078.48
2019-04-14T00:48:34.854Z,95081.16
2019-04-14T00:53:38.120Z,95078.34
2019-04-14T00:58:38.957Z,95076.02
2019-04-14T01:03:39.700Z,95069.53
2019-04-14T01:08:41.048Z,95069.28
2019-04-14T01:13:42.440Z,95065.20
2019-04-14T01:18:45.024Z,95052.91
2019-04-14T01:23:45.507Z,95059.61
2019-04-14T01:28:46.891Z,95061.76
2019-04-14T01:33:49.155Z,95056.28
2019-04-14T01:39:06.849Z,95057.41
2019-04-14T01:44:07.064Z,95058.23
2019-04-14T01:49:09.342Z,95057.42
2019-04-14T01:54:17.105Z,95061.16
2019-04-14T01:59:17.904Z,95065.76
2019-04-14T02:04:20.274Z,95055.36
2019-04-14T02:09:20.935Z,95061.17
2019-04-14T02:14:23.268Z,95060.50
2019-04-14T02:19:24.166Z,95059.07
2019-04-14T02:24:26.362Z,95058.56
2019-04-14T02:29:27.630Z,95057.22
2019-04-14T02:35:11.177Z,95052.31
2019-04-14T02:40:04.060Z,95059.75
2019-04-14T02:45:00.381Z,95061.19
2019-04-14T02:49:56.556Z,95061.19
2019-04-14T02:54:58.815Z,95055.08
2019-04-14T03:10:04.849Z,95050.58
2019-04-14T03:25:31.755Z,95054.32
2019-04-14T03:30:58.417Z,95054.22
2019-04-14T03:40:46.385Z,95061.38
2019-04-14T03:45:55.181Z,95064.51
2019-04-14T03:50:50.174Z,95064.08
2019-04-14T04:01:15.096Z,95066.35
2019-04-14T04:06:15.995Z,95064.30
2019-04-14T04:11:17.217Z,95062.66
2019-04-14T04:16:18.441Z,95066.83
2019-04-14T04:21:22.796Z,95065.88
2019-04-14T04:26:30.034Z,95063.52
2019-04-14T04:31:31.311Z,95070.64
2019-04-14T04:36:35.622Z,95077.53
2019-04-14T04:41:36.634Z,95085.95
2019-04-14T04:46:38.017Z,95088.32
2019-04-14T04:51:40.007Z,95089.52
2019-04-14T04:56:40.751Z,95095.37
2019-04-14T05:01:42.982Z,95103.53
2019-04-14T05:06:53.005Z,95110.25
2019-04-14T05:12:04.258Z,95115.37
2019-04-14T05:17:05.729Z,95115.28
2019-04-14T05:22:06.971Z,95129.87
2019-04-14T05:27:07.882Z,95136.11
2019-04-14T05:32:08.845Z,95132.97
2019-04-14T05:37:10.203Z,95128.52
2019-04-14T05:42:18.004Z,95130.59
2019-04-14T05:47:13.194Z,95130.48
2019-04-14T05:52:18.646Z,95129.92
2019-04-14T05:57:19.997Z,95124.89
2019-04-14T06:02:22.297Z,95129.81
2019-04-14T06:07:23.977Z,95137.44
2019-04-14T06:12:26.340Z,95136.58
2019-04-14T06:17:27.884Z,95146.87
2019-04-14T06:22:29.213Z,95140.16
2019-04-14T06:27:30.587Z,95145.31
2019-04-14T06:32:33.854Z,95141.83
2019-04-14T06:37:35.940Z,95138.62
2019-04-14T06:42:38.260Z,95137.41
2019-04-14T06:47:39.585Z,95143.35
2019-04-14T06:52:41.716Z,95151.25
2019-04-14T06:57:43.152Z,95145.50
2019-04-14T07:02:47.911Z,95147.82
2019-04-14T07:07:56.403Z,95153.13
2019-04-14T07:12:48.336Z,95149.52
2019-04-14T07:17:49.633Z,95151.78
2019-04-14T07:22:50.977Z,95153.15
2019-04-14T07:27:53.056Z,95165.25
2019-04-14T07:32:59.030Z,95158.97
2019-04-14T07:38:01.088Z,95159.96
2019-04-14T07:43:08.142Z,95152.22
2019-04-14T07:53:44.402Z,95146.55
2019-04-14T08:04:18.338Z,95141.47
2019-04-14T08:09:19.715Z,95132.40
2019-04-14T08:14:21.800Z,95136.52
2019-04-14T08:19:23.205Z,95142.91
2019-04-14T08:24:24.627Z,95146.22
2019-04-14T08:29:25.984Z,95146.98
2019-04-14T08:34:27.342Z,95148.02
2019-04-14T08:39:28.688Z,95143.71
2019-04-14T08:44:45.028Z,95144.47
2019-04-14T08:55:34.219Z,95154.91
2019-04-14T09:00:40.534Z,95143.30
2019-04-14T09:05:44.833Z,95150.84
2019-04-14T09:10:46.304Z,95150.27
2019-04-14T09:15:48.205Z,95154.96
2019-04-14T09:20:52.433Z,95161.52
2019-04-14T09:25:51.039Z,95154.94
2019-04-14T09:30:52.685Z,95166.88
2019-04-14T09:35:54.015Z,95148.23
2019-04-14T09:40:55.445Z,95141.82
2019-04-14T09:45:56.932Z,95152.27
2019-04-14T09:51:04.943Z,95147.52
2019-04-14T09:56:03.573Z,95143.96
2019-04-14T10:01:05.651Z,95149.00
2019-04-14T10:06:06.962Z,95140.16
2019-04-14T10:11:08.406Z,95141.83
2019-04-14T10:16:10.498Z,95145.61
2019-04-14T10:21:17.620Z,95139.02
2019-04-14T10:26:13.648Z,95145.60
2019-04-14T10:31:15.055Z,95143.95
2019-04-14T10:36:16.420Z,95147.84
2019-04-14T10:41:17.769Z,95138.21
2019-04-14T10:46:19.083Z,95132.47
2019-04-14T10:51:29.891Z,95133.92
2019-04-14T10:56:22.530Z,95134.70
2019-04-14T11:01:24.134Z,95133.68
2019-04-14T11:06:37.582Z,95138.39
2019-04-14T11:11:38.884Z,95143.66
2019-04-14T11:16:40.189Z,95148.26
2019-04-14T11:21:42.696Z,95163.95
2019-04-14T11:26:42.837Z,95161.57
2019-04-14T11:31:46.131Z,95164.79
2019-04-14T11:37:03.442Z,95165.03
2019-04-14T11:42:05.525Z,95160.40
2019-04-14T11:47:07.731Z,95170.53
2019-04-14T11:52:09.083Z,95175.03
2019-04-14T11:57:11.148Z,95177.70
2019-04-14T12:02:14.036Z,95183.38
2019-04-14T12:07:18.057Z,95187.17
2019-04-14T12:12:24.378Z,95194.89
2019-04-14T12:17:26.811Z,95187.38
2019-04-14T12:22:28.997Z,95200.59
2019-04-14T12:27:30.348Z,95202.84
2019-04-14T12:32:31.660Z,95203.50
2019-04-14T12:37:33.022Z,95210.17
2019-04-14T12:42:45.192Z,95201.63
2019-04-14T12:47:48.433Z,95202.48
2019-04-14T12:52:49.946Z,95206.45
2019-04-14T12:57:52.092Z,95207.88
2019-04-14T13:02:53.478Z,95210.53
2019-04-14T13:07:57.575Z,95210.75
2019-04-14T13:13:00.018Z,95218.67
2019-04-14T13:18:01.329Z,95210.23
2019-04-14T13:23:02.680Z,95216.64
2019-04-14T13:28:04.053Z,95218.08
2019-04-14T13:33:06.042Z,95216.63
2019-04-14T13:38:07.392Z,95211.14
2019-04-14T13:43:08.727Z,95214.73
2019-04-14T13:48:10.072Z,95216.59
2019-04-14T13:53:12.203Z,95217.58
2019-04-14T13:58:13.606Z,95208.80
2019-04-14T14:03:15.097Z,95223.50
2019-04-14T14:08:16.483Z,95212.46
2019-04-14T14:13:20.718Z,95223.06
2019-04-14T14:18:32.973Z,95229.52
2019-04-14T14:29:02.443Z,95235.07
2019-04-14T14:34:05.497Z,95235.52
2019-04-14T14:39:06.919Z,95233.30
2019-04-14T14:44:09.057Z,95234.03
2019-04-14T14:49:17.225Z,95230.95
2019-04-14T14:54:18.552Z,95233.89
2019-04-14T14:59:19.893Z,95231.37
2019-04-14T15:04:21.269Z,95240.18
2019-04-14T15:09:22.612Z,95236.02
2019-04-14T15:14:28.001Z,95249.38
2019-04-14T15:19:29.439Z,95257.88
2019-04-14T15:24:31.955Z,95253.25
2019-04-14T15:29:33.299Z,95254.36
2019-04-14T15:34:35.697Z,95254.24
2019-04-14T15:39:37.710Z,95258.02
2019-04-14T15:44:39.600Z,95259.98
2019-04-14T15:49:42.020Z,95262.77
2019-04-14T15:54:51.934Z,95267.20
2019-04-14T15:59:53.548Z,95267.83
2019-04-14T16:04:57.843Z,95274.63
2019-04-14T16:10:12.536Z,95283.16
2019-04-14T16:15:17.918Z,95285.63
2019-04-14T16:20:20.035Z,95287.58
2019-04-14T16:25:21.482Z,95289.00
2019-04-14T16:30:30.162Z,95295.91
2019-04-14T16:35:33.449Z,95298.75
2019-04-14T16:40:34.825Z,95298.26
2019-04-14T16:45:36.277Z,95308.92
2019-04-14T16:50:37.694Z,95310.65
2019-04-14T16:55:44.781Z,95309.23
2019-04-14T17:00:51.124Z,95319.98
2019-04-14T17:05:53.269Z,95321.85
2019-04-14T17:10:55.397Z,95325.66
2019-04-14T17:16:06.619Z,95335.19
2019-04-14T17:21:14.189Z,95336.42
2019-04-14T17:26:15.568Z,95342.20
2019-04-14T17:31:18.099Z,95349.68
2019-04-14T17:36:21.519Z,95359.52
2019-04-14T17:41:30.200Z,95363.66
2019-04-14T17:46:32.541Z,95376.55
2019-04-14T17:51:36.743Z,95379.65
2019-04-14T17:56:40.281Z,95382.52
2019-04-14T18:01:52.149Z,95392.99
2019-04-14T18:06:53.584Z,95400.59
2019-04-14T18:12:06.464Z,95416.03
2019-04-14T18:17:14.784Z,95420.91
2019-04-14T18:22:16.455Z,95434.27
2019-04-14T18:27:19.717Z,95442.78
2019-04-14T18:32:22.786Z,95454.28
2019-04-14T18:37:32.524Z,95462.59
2019-04-14T18:42:39.773Z,95466.91
2019-04-14T18:47:45.421Z,95472.11
2019-04-14T18:58:19.332Z,95486.77
2019-04-14T19:03:22.508Z,95491.71
2019-04-14T19:08:28.608Z,95493.70
2019-04-14T19:13:31.451Z,95498.89
2019-04-14T19:18:33.065Z,95508.34
2019-04-14T19:23:34.431Z,95516.03
2019-04-14T19:28:36.545Z,95515.31
2019-04-14T19:33:37.904Z,95526.83
2019-04-14T19:38:39.273Z,95532.98
2019-04-14T19:43:40.681Z,95535.28
2019-04-14T19:48:42.045Z,95540.89
2019-04-14T19:53:43.427Z,95546.48
2019-04-14T19:58:45.063Z,95548.01
2019-04-14T20:03:46.497Z,95556.64
2019-04-14T20:08:48.542Z,95556.95
2019-04-14T20:13:49.899Z,95559.16
2019-04-14T20:19:09.647Z,95563.72
2019-04-14T20:24:04.759Z,95570.02
2019-04-14T20:29:06.128Z,95572.98
2019-04-14T20:34:07.492Z,95576.95
2019-04-14T20:39:08.846Z,95571.42
2019-04-14T20:44:18.696Z,95578.22
2019-04-14T20:49:20.786Z,95578.41
2019-04-14T20:54:32.954Z,95581.27
2019-04-14T20:59:34.301Z,95583.12
2019-04-14T21:04:35.600Z,95582.34
2019-04-14T21:09:41.747Z,95590.42
2019-04-14T21:14:43.108Z,95598.75
2019-04-14T21:19:50.624Z,95595.48
2019-04-14T21:24:51.946Z,95596.06
2019-04-14T21:30:07.956Z,95603.66
2019-04-14T21:35:10.084Z,95594.74
2019-04-14T21:45:41.414Z,95606.62
2019-04-14T21:50:43.075Z,95610.80
2019-04-14T21:55:44.408Z,95624.88
2019-04-14T22:06:33.097Z,95630.94
2019-04-14T22:11:41.052Z,95632.75
2019-04-14T22:16:42.459Z,95633.61
2019-04-14T22:21:47.362Z,95634.78
2019-04-14T22:26:46.677Z,95636.78
2019-04-14T22:31:56.317Z,95644.48
2019-04-14T22:36:57.601Z,95645.03
2019-04-14T22:41:58.912Z,95647.45
2019-04-14T22:47:01.015Z,95653.42
2019-04-14T22:52:02.397Z,95666.36
2019-04-14T22:57:03.743Z,95663.72
2019-04-14T23:02:24.521Z,95674.16
2019-04-14T23:07:33.753Z,95671.06
2019-04-14T23:12:38.084Z,95673.09
2019-04-14T23:17:40.261Z,95678.09
2019-04-14T23:22:42.680Z,95681.42
2019-04-14T23:27:44.083Z,95686.33
2019-04-14T23:32:45.498Z,95683.78
2019-04-14T23:37:46.864Z,95689.05
2019-04-14T23:42:48.177Z,95684.23
2019-04-14T23:47:49.593Z,95687.91
2019-04-14T23:52:51.036Z,95693.53
2019-04-14T23:57:53.229Z,95690.00
